sensor_id;sensor_type;location;lat;lon;timestamp;P1;durP1;ratioP1;P2;durP2;ratioP2
7306;SDS011;3694;48.732;9.248;2023-01-15T00:01:01;0.50;;;0.50;;
7306;SDS011;3694;48.732;9.248;2023-01-15T00:03:28;0.60;;;0.60;;
7306;SDS011;3694;48.732;9.248;2023-01-15T00:05:54;1.17;;;0.47;;
7306;SDS011;3694;48.732;9.248;2023-01-15T00:08:20;0.40;;;0.40;;
7306;SDS011;3694;48.732;9.248;2023-01-15T00:10:46;0.40;;;0.40;;
7306;SDS011;3694;48.732;9.248;2023-01-15T00:13:12;0.93;;;0.50;;
7306;SDS011;3694;48.732;9.248;2023-01-15T00:15:37;1.00;;;0.40;;
7306;SDS011;3694;48.732;9.248;2023-01-15T00:18:03;0.40;;;0.40;;
7306;SDS011;3694;48.732;9.248;2023-01-15T00:20:29;0.67;;;0.40;;
7306;SDS011;3694;48.732;9.248;2023-01-15T00:22:54;0.50;;;0.40;;
7306;SDS011;3694;48.732;9.248;2023-01-15T00:25:20;0.87;;;0.33;;
7306;SDS011;3694;48.732;9.248;2023-01-15T00:28:05;1.17;;;0.50;;
7306;SDS011;3694;48.732;9.248;2023-01-15T00:30:30;0.40;;;0.40;;
7306;SDS011;3694;48.732;9.248;2023-01-15T00:32:56;0.40;;;0.40;;
7306;SDS011;3694;48.732;9.248;2023-01-15T00:35:23;0.40;;;0.40;;
7306;SDS011;3694;48.732;9.248;2023-01-15T00:37:49;0.67;;;0.47;;
7306;SDS011;3694;48.732;9.248;2023-01-15T00:40:16;0.37;;;0.37;;
7306;SDS011;3694;48.732;9.248;2023-01-15T00:42:43;0.50;;;0.50;;
7306;SDS011;3694;48.732;9.248;2023-01-15T00:45:09;0.80;;;0.30;;
7306;SDS011;3694;48.732;9.248;2023-01-15T00:47:36;0.87;;;0.40;;
7306;SDS011;3694;48.732;9.248;2023-01-15T00:50:02;0.90;;;0.43;;
7306;SDS011;3694;48.732;9.248;2023-01-15T00:52:29;0.30;;;0.30;;
7306;SDS011;3694;48.732;9.248;2023-01-15T00:54:55;0.87;;;0.83;;
7306;SDS011;3694;48.732;9.248;2023-01-15T00:57:20;0.77;;;0.30;;
7306;SDS011;3694;48.732;9.248;2023-01-15T00:59:46;0.50;;;0.50;;
7306;SDS011;3694;48.732;9.248;2023-01-15T01:02:11;0.40;;;0.40;;
7306;SDS011;3694;48.732;9.248;2023-01-15T01:04:37;0.30;;;0.30;;
7306;SDS011;3694;48.732;9.248;2023-01-15T01:07:02;0.50;;;0.40;;
7306;SDS011;3694;48.732;9.248;2023-01-15T01:09:28;0.47;;;0.43;;
7306;SDS011;3694;48.732;9.248;2023-01-15T01:11:54;1.00;;;0.43;;
7306;SDS011;3694;48.732;9.248;2023-01-15T01:14:19;0.77;;;0.40;;
7306;SDS011;3694;48.732;9.248;2023-01-15T01:16:45;0.40;;;0.40;;
7306;SDS011;3694;48.732;9.248;2023-01-15T01:19:15;0.70;;;0.40;;
7306;SDS011;3694;48.732;9.248;2023-01-15T01:21:42;0.30;;;0.20;;
7306;SDS011;3694;48.732;9.248;2023-01-15T01:24:12;0.40;;;0.40;;
7306;SDS011;3694;48.732;9.248;2023-01-15T01:26:48;0.40;;;0.40;;
7306;SDS011;3694;48.732;9.248;2023-01-15T01:29:15;0.50;;;0.50;;
7306;SDS011;3694;48.732;9.248;2023-01-15T01:31:43;0.40;;;0.40;;
7306;SDS011;3694;48.732;9.248;2023-01-15T01:34:09;1.10;;;0.60;;
7306;SDS011;3694;48.732;9.248;2023-01-15T01:36:37;0.27;;;0.27;;
7306;SDS011;3694;48.732;9.248;2023-01-15T01:39:04;0.40;;;0.40;;
7306;SDS011;3694;48.732;9.248;2023-01-15T01:41:30;0.40;;;0.37;;
7306;SDS011;3694;48.732;9.248;2023-01-15T01:44:01;0.40;;;0.40;;
7306;SDS011;3694;48.732;9.248;2023-01-15T01:46:32;0.30;;;0.30;;
7306;SDS011;3694;48.732;9.248;2023-01-15T01:48:59;0.67;;;0.33;;
7306;SDS011;3694;48.732;9.248;2023-01-15T01:51:31;1.40;;;0.70;;
7306;SDS011;3694;48.732;9.248;2023-01-15T01:54:10;0.57;;;0.40;;
7306;SDS011;3694;48.732;9.248;2023-01-15T01:56:37;0.57;;;0.40;;
7306;SDS011;3694;48.732;9.248;2023-01-15T01:59:03;1.07;;;0.80;;
7306;SDS011;3694;48.732;9.248;2023-01-15T02:01:30;2.43;;;1.50;;
7306;SDS011;3694;48.732;9.248;2023-01-15T02:03:57;0.80;;;0.53;;
7306;SDS011;3694;48.732;9.248;2023-01-15T02:06:23;0.30;;;0.30;;
7306;SDS011;3694;48.732;9.248;2023-01-15T02:08:50;1.40;;;0.57;;
7306;SDS011;3694;48.732;9.248;2023-01-15T02:11:17;0.53;;;0.30;;
7306;SDS011;3694;48.732;9.248;2023-01-15T02:14:09;0.40;;;0.40;;
7306;SDS011;3694;48.732;9.248;2023-01-15T02:16:46;0.43;;;0.43;;
7306;SDS011;3694;48.732;9.248;2023-01-15T02:19:44;0.73;;;0.57;;
7306;SDS011;3694;48.732;9.248;2023-01-15T02:28:07;0.50;;;0.20;;
7306;SDS011;3694;48.732;9.248;2023-01-15T02:30:41;0.37;;;0.30;;
7306;SDS011;3694;48.732;9.248;2023-01-15T02:33:17;1.83;;;1.00;;
7306;SDS011;3694;48.732;9.248;2023-01-15T02:35:50;1.50;;;0.67;;
7306;SDS011;3694;48.732;9.248;2023-01-15T02:38:21;1.20;;;1.00;;
7306;SDS011;3694;48.732;9.248;2023-01-15T02:40:50;0.40;;;0.40;;
7306;SDS011;3694;48.732;9.248;2023-01-15T02:43:18;0.40;;;0.40;;
7306;SDS011;3694;48.732;9.248;2023-01-15T02:45:47;1.47;;;1.07;;
7306;SDS011;3694;48.732;9.248;2023-01-15T02:48:15;0.87;;;0.80;;
7306;SDS011;3694;48.732;9.248;2023-01-15T02:50:43;0.47;;;0.47;;
7306;SDS011;3694;48.732;9.248;2023-01-15T02:53:16;0.50;;;0.50;;
7306;SDS011;3694;48.732;9.248;2023-01-15T02:55:47;1.43;;;0.40;;
7306;SDS011;3694;48.732;9.248;2023-01-15T02:58:15;0.20;;;0.20;;
7306;SDS011;3694;48.732;9.248;2023-01-15T03:00:44;0.63;;;0.53;;
7306;SDS011;3694;48.732;9.248;2023-01-15T03:03:20;0.87;;;0.70;;
7306;SDS011;3694;48.732;9.248;2023-01-15T03:08:23;0.30;;;0.30;;
7306;SDS011;3694;48.732;9.248;2023-01-15T03:10:54;0.30;;;0.30;;
7306;SDS011;3694;48.732;9.248;2023-01-15T03:16:13;0.30;;;0.30;;
7306;SDS011;3694;48.732;9.248;2023-01-15T03:19:09;0.40;;;0.33;;
7306;SDS011;3694;48.732;9.248;2023-01-15T03:21:48;0.33;;;0.30;;
7306;SDS011;3694;48.732;9.248;2023-01-15T03:27:11;0.50;;;0.43;;
7306;SDS011;3694;48.732;9.248;2023-01-15T03:29:38;0.30;;;0.30;;
7306;SDS011;3694;48.732;9.248;2023-01-15T03:32:07;0.43;;;0.37;;
7306;SDS011;3694;48.732;9.248;2023-01-15T03:34:43;0.40;;;0.40;;
7306;SDS011;3694;48.732;9.248;2023-01-15T03:37:09;0.20;;;0.20;;
7306;SDS011;3694;48.732;9.248;2023-01-15T03:39:35;0.47;;;0.30;;
7306;SDS011;3694;48.732;9.248;2023-01-15T03:42:19;0.50;;;0.50;;
7306;SDS011;3694;48.732;9.248;2023-01-15T03:48:02;0.20;;;0.20;;
7306;SDS011;3694;48.732;9.248;2023-01-15T03:50:43;0.33;;;0.30;;
7306;SDS011;3694;48.732;9.248;2023-01-15T03:53:48;0.83;;;0.40;;
7306;SDS011;3694;48.732;9.248;2023-01-15T03:56:17;0.30;;;0.30;;
7306;SDS011;3694;48.732;9.248;2023-01-15T03:58:51;1.23;;;0.30;;
7306;SDS011;3694;48.732;9.248;2023-01-15T04:01:25;0.30;;;0.30;;
7306;SDS011;3694;48.732;9.248;2023-01-15T04:03:56;0.53;;;0.40;;
7306;SDS011;3694;48.732;9.248;2023-01-15T04:06:23;0.40;;;0.40;;
7306;SDS011;3694;48.732;9.248;2023-01-15T04:08:51;0.30;;;0.30;;
7306;SDS011;3694;48.732;9.248;2023-01-15T04:11:22;0.30;;;0.30;;
7306;SDS011;3694;48.732;9.248;2023-01-15T04:13:49;0.20;;;0.20;;
7306;SDS011;3694;48.732;9.248;2023-01-15T04:16:16;0.30;;;0.30;;
7306;SDS011;3694;48.732;9.248;2023-01-15T04:18:48;0.70;;;0.30;;
7306;SDS011;3694;48.732;9.248;2023-01-15T04:21:14;0.87;;;0.30;;
7306;SDS011;3694;48.732;9.248;2023-01-15T04:23:39;0.83;;;0.30;;
7306;SDS011;3694;48.732;9.248;2023-01-15T04:26:05;0.67;;;0.40;;
7306;SDS011;3694;48.732;9.248;2023-01-15T04:28:31;0.27;;;0.27;;
7306;SDS011;3694;48.732;9.248;2023-01-15T04:30:57;0.37;;;0.23;;
7306;SDS011;3694;48.732;9.248;2023-01-15T04:33:23;0.93;;;0.40;;
7306;SDS011;3694;48.732;9.248;2023-01-15T04:35:49;0.37;;;0.37;;
7306;SDS011;3694;48.732;9.248;2023-01-15T04:38:15;0.23;;;0.23;;
7306;SDS011;3694;48.732;9.248;2023-01-15T04:40:42;0.23;;;0.20;;
7306;SDS011;3694;48.732;9.248;2023-01-15T04:43:26;0.30;;;0.30;;
7306;SDS011;3694;48.732;9.248;2023-01-15T04:46:10;0.20;;;0.20;;
7306;SDS011;3694;48.732;9.248;2023-01-15T04:48:37;0.20;;;0.20;;
7306;SDS011;3694;48.732;9.248;2023-01-15T04:51:03;0.33;;;0.30;;
7306;SDS011;3694;48.732;9.248;2023-01-15T04:53:29;0.30;;;0.30;;
7306;SDS011;3694;48.732;9.248;2023-01-15T04:55:59;0.30;;;0.30;;
7306;SDS011;3694;48.732;9.248;2023-01-15T04:58:26;0.27;;;0.20;;
7306;SDS011;3694;48.732;9.248;2023-01-15T05:00:51;0.30;;;0.30;;
7306;SDS011;3694;48.732;9.248;2023-01-15T05:03:17;0.57;;;0.23;;
7306;SDS011;3694;48.732;9.248;2023-01-15T05:05:42;0.20;;;0.20;;
7306;SDS011;3694;48.732;9.248;2023-01-15T05:08:08;1.50;;;0.20;;
7306;SDS011;3694;48.732;9.248;2023-01-15T05:10:33;0.30;;;0.20;;
7306;SDS011;3694;48.732;9.248;2023-01-15T05:12:59;0.50;;;0.30;;
7306;SDS011;3694;48.732;9.248;2023-01-15T05:15:24;0.40;;;0.30;;
7306;SDS011;3694;48.732;9.248;2023-01-15T05:17:50;0.20;;;0.20;;
7306;SDS011;3694;48.732;9.248;2023-01-15T05:20:15;0.57;;;0.30;;
7306;SDS011;3694;48.732;9.248;2023-01-15T05:22:41;1.03;;;0.20;;
7306;SDS011;3694;48.732;9.248;2023-01-15T05:25:07;0.33;;;0.30;;
7306;SDS011;3694;48.732;9.248;2023-01-15T05:27:32;0.20;;;0.20;;
7306;SDS011;3694;48.732;9.248;2023-01-15T05:29:58;0.53;;;0.40;;
7306;SDS011;3694;48.732;9.248;2023-01-15T05:32:23;0.30;;;0.30;;
7306;SDS011;3694;48.732;9.248;2023-01-15T05:34:49;0.30;;;0.30;;
7306;SDS011;3694;48.732;9.248;2023-01-15T05:37:14;0.60;;;0.40;;
7306;SDS011;3694;48.732;9.248;2023-01-15T05:39:40;0.20;;;0.20;;
7306;SDS011;3694;48.732;9.248;2023-01-15T05:42:05;0.30;;;0.20;;
7306;SDS011;3694;48.732;9.248;2023-01-15T05:44:31;0.33;;;0.30;;
7306;SDS011;3694;48.732;9.248;2023-01-15T05:46:58;0.20;;;0.20;;
7306;SDS011;3694;48.732;9.248;2023-01-15T05:49:27;0.20;;;0.20;;
7306;SDS011;3694;48.732;9.248;2023-01-15T05:51:55;0.33;;;0.20;;
7306;SDS011;3694;48.732;9.248;2023-01-15T05:54:23;0.20;;;0.20;;
7306;SDS011;3694;48.732;9.248;2023-01-15T05:56:50;0.10;;;0.10;;
7306;SDS011;3694;48.732;9.248;2023-01-15T05:59:17;0.10;;;0.10;;
7306;SDS011;3694;48.732;9.248;2023-01-15T06:01:44;0.10;;;0.10;;
7306;SDS011;3694;48.732;9.248;2023-01-15T06:04:10;0.10;;;0.10;;
7306;SDS011;3694;48.732;9.248;2023-01-15T06:06:38;0.83;;;0.10;;
7306;SDS011;3694;48.732;9.248;2023-01-15T06:09:04;0.30;;;0.30;;
7306;SDS011;3694;48.732;9.248;2023-01-15T06:11:30;0.10;;;0.10;;
7306;SDS011;3694;48.732;9.248;2023-01-15T06:13:56;0.33;;;0.20;;
7306;SDS011;3694;48.732;9.248;2023-01-15T06:16:21;0.10;;;0.10;;
7306;SDS011;3694;48.732;9.248;2023-01-15T06:18:47;0.10;;;0.10;;
7306;SDS011;3694;48.732;9.248;2023-01-15T06:21:13;0.10;;;0.10;;
7306;SDS011;3694;48.732;9.248;2023-01-15T06:23:40;0.10;;;0.10;;
7306;SDS011;3694;48.732;9.248;2023-01-15T06:26:07;1.23;;;0.10;;
7306;SDS011;3694;48.732;9.248;2023-01-15T06:28:39;0.30;;;0.30;;
7306;SDS011;3694;48.732;9.248;2023-01-15T06:31:07;0.10;;;0.10;;
7306;SDS011;3694;48.732;9.248;2023-01-15T06:33:35;0.13;;;0.13;;
7306;SDS011;3694;48.732;9.248;2023-01-15T06:36:02;0.20;;;0.20;;
7306;SDS011;3694;48.732;9.248;2023-01-15T06:38:31;0.10;;;0.10;;
7306;SDS011;3694;48.732;9.248;2023-01-15T06:41:01;0.17;;;0.17;;
7306;SDS011;3694;48.732;9.248;2023-01-15T06:43:27;0.10;;;0.10;;
7306;SDS011;3694;48.732;9.248;2023-01-15T06:46:31;0.10;;;0.10;;
7306;SDS011;3694;48.732;9.248;2023-01-15T06:49:15;0.10;;;0.10;;
7306;SDS011;3694;48.732;9.248;2023-01-15T06:51:41;0.10;;;0.10;;
7306;SDS011;3694;48.732;9.248;2023-01-15T06:54:06;0.10;;;0.10;;
7306;SDS011;3694;48.732;9.248;2023-01-15T06:56:31;0.17;;;0.17;;
7306;SDS011;3694;48.732;9.248;2023-01-15T06:58:57;0.40;;;0.20;;
7306;SDS011;3694;48.732;9.248;2023-01-15T07:01:22;0.20;;;0.20;;
7306;SDS011;3694;48.732;9.248;2023-01-15T07:03:48;0.20;;;0.20;;
7306;SDS011;3694;48.732;9.248;2023-01-15T07:06:13;0.50;;;0.50;;
7306;SDS011;3694;48.732;9.248;2023-01-15T07:08:39;0.20;;;0.20;;
7306;SDS011;3694;48.732;9.248;2023-01-15T07:11:06;1.00;;;0.30;;
7306;SDS011;3694;48.732;9.248;2023-01-15T07:13:33;0.20;;;0.20;;
7306;SDS011;3694;48.732;9.248;2023-01-15T07:16:00;0.20;;;0.20;;
7306;SDS011;3694;48.732;9.248;2023-01-15T07:18:27;0.30;;;0.30;;
7306;SDS011;3694;48.732;9.248;2023-01-15T07:20:57;0.20;;;0.20;;
7306;SDS011;3694;48.732;9.248;2023-01-15T07:23:23;0.20;;;0.20;;
7306;SDS011;3694;48.732;9.248;2023-01-15T07:25:53;0.20;;;0.20;;
7306;SDS011;3694;48.732;9.248;2023-01-15T07:28:20;1.97;;;1.77;;
7306;SDS011;3694;48.732;9.248;2023-01-15T07:30:47;1.07;;;0.40;;
7306;SDS011;3694;48.732;9.248;2023-01-15T07:33:12;0.50;;;0.50;;
7306;SDS011;3694;48.732;9.248;2023-01-15T07:35:38;1.17;;;0.73;;
7306;SDS011;3694;48.732;9.248;2023-01-15T07:38:03;0.50;;;0.50;;
7306;SDS011;3694;48.732;9.248;2023-01-15T07:40:29;0.80;;;0.80;;
7306;SDS011;3694;48.732;9.248;2023-01-15T07:42:55;0.20;;;0.20;;
7306;SDS011;3694;48.732;9.248;2023-01-15T07:45:39;0.27;;;0.27;;
7306;SDS011;3694;48.732;9.248;2023-01-15T07:48:24;0.30;;;0.30;;
7306;SDS011;3694;48.732;9.248;2023-01-15T07:51:09;0.40;;;0.40;;
7306;SDS011;3694;48.732;9.248;2023-01-15T07:53:34;0.37;;;0.37;;
7306;SDS011;3694;48.732;9.248;2023-01-15T07:56:00;0.20;;;0.20;;
7306;SDS011;3694;48.732;9.248;2023-01-15T07:58:25;0.60;;;0.20;;
7306;SDS011;3694;48.732;9.248;2023-01-15T08:00:51;0.17;;;0.10;;
7306;SDS011;3694;48.732;9.248;2023-01-15T08:03:17;0.10;;;0.10;;
7306;SDS011;3694;48.732;9.248;2023-01-15T08:05:42;0.20;;;0.20;;
7306;SDS011;3694;48.732;9.248;2023-01-15T08:08:14;0.20;;;0.10;;
7306;SDS011;3694;48.732;9.248;2023-01-15T08:10:42;0.20;;;0.20;;
7306;SDS011;3694;48.732;9.248;2023-01-15T08:13:27;0.20;;;0.20;;
7306;SDS011;3694;48.732;9.248;2023-01-15T08:16:11;0.10;;;0.10;;
7306;SDS011;3694;48.732;9.248;2023-01-15T08:18:37;0.20;;;0.20;;
7306;SDS011;3694;48.732;9.248;2023-01-15T08:21:03;0.33;;;0.30;;
7306;SDS011;3694;48.732;9.248;2023-01-15T08:23:29;0.30;;;0.30;;
7306;SDS011;3694;48.732;9.248;2023-01-15T08:25:57;0.30;;;0.30;;
7306;SDS011;3694;48.732;9.248;2023-01-15T08:28:24;0.10;;;0.10;;
7306;SDS011;3694;48.732;9.248;2023-01-15T08:30:49;0.20;;;0.20;;
7306;SDS011;3694;48.732;9.248;2023-01-15T08:33:15;0.13;;;0.13;;
7306;SDS011;3694;48.732;9.248;2023-01-15T08:35:40;0.20;;;0.20;;
7306;SDS011;3694;48.732;9.248;2023-01-15T08:38:06;1.13;;;0.30;;
7306;SDS011;3694;48.732;9.248;2023-01-15T08:40:33;0.17;;;0.17;;
7306;SDS011;3694;48.732;9.248;2023-01-15T08:43:00;0.20;;;0.20;;
7306;SDS011;3694;48.732;9.248;2023-01-15T08:45:26;0.20;;;0.20;;
7306;SDS011;3694;48.732;9.248;2023-01-15T08:47:55;0.20;;;0.20;;
7306;SDS011;3694;48.732;9.248;2023-01-15T08:50:22;0.20;;;0.20;;
7306;SDS011;3694;48.732;9.248;2023-01-15T08:52:48;0.40;;;0.40;;
7306;SDS011;3694;48.732;9.248;2023-01-15T08:55:13;0.30;;;0.30;;
7306;SDS011;3694;48.732;9.248;2023-01-15T08:57:39;0.40;;;0.40;;
7306;SDS011;3694;48.732;9.248;2023-01-15T09:00:04;0.20;;;0.20;;
7306;SDS011;3694;48.732;9.248;2023-01-15T09:02:31;0.80;;;0.80;;
7306;SDS011;3694;48.732;9.248;2023-01-15T09:04:56;0.40;;;0.40;;
7306;SDS011;3694;48.732;9.248;2023-01-15T09:07:22;0.50;;;0.50;;
7306;SDS011;3694;48.732;9.248;2023-01-15T09:09:47;0.30;;;0.30;;
7306;SDS011;3694;48.732;9.248;2023-01-15T09:12:13;0.43;;;0.30;;
7306;SDS011;3694;48.732;9.248;2023-01-15T09:14:38;0.40;;;0.30;;
7306;SDS011;3694;48.732;9.248;2023-01-15T09:17:04;0.30;;;0.30;;
7306;SDS011;3694;48.732;9.248;2023-01-15T09:19:29;0.77;;;0.30;;
7306;SDS011;3694;48.732;9.248;2023-01-15T09:21:55;0.27;;;0.20;;
7306;SDS011;3694;48.732;9.248;2023-01-15T09:24:20;0.40;;;0.30;;
7306;SDS011;3694;48.732;9.248;2023-01-15T09:26:46;2.00;;;0.80;;
7306;SDS011;3694;48.732;9.248;2023-01-15T09:29:12;0.80;;;0.80;;
7306;SDS011;3694;48.732;9.248;2023-01-15T09:31:38;0.47;;;0.40;;
7306;SDS011;3694;48.732;9.248;2023-01-15T09:34:03;0.50;;;0.50;;
7306;SDS011;3694;48.732;9.248;2023-01-15T09:36:31;0.63;;;0.60;;
7306;SDS011;3694;48.732;9.248;2023-01-15T09:38:58;0.40;;;0.40;;
7306;SDS011;3694;48.732;9.248;2023-01-15T09:41:26;1.10;;;0.70;;
7306;SDS011;3694;48.732;9.248;2023-01-15T09:44:30;0.40;;;0.40;;
7306;SDS011;3694;48.732;9.248;2023-01-15T09:47:21;0.30;;;0.30;;
7306;SDS011;3694;48.732;9.248;2023-01-15T09:55:16;1.27;;;0.87;;
7306;SDS011;3694;48.732;9.248;2023-01-15T09:57:54;0.90;;;0.87;;
7306;SDS011;3694;48.732;9.248;2023-01-15T10:00:23;0.50;;;0.50;;
7306;SDS011;3694;48.732;9.248;2023-01-15T10:03:03;0.60;;;0.60;;
7306;SDS011;3694;48.732;9.248;2023-01-15T10:13:40;0.50;;;0.50;;
7306;SDS011;3694;48.732;9.248;2023-01-15T10:16:17;0.33;;;0.33;;
7306;SDS011;3694;48.732;9.248;2023-01-15T10:18:46;0.43;;;0.40;;
7306;SDS011;3694;48.732;9.248;2023-01-15T10:21:46;3.93;;;3.53;;
7306;SDS011;3694;48.732;9.248;2023-01-15T10:24:18;2.10;;;2.00;;
7306;SDS011;3694;48.732;9.248;2023-01-15T10:26:56;4.30;;;4.00;;
7306;SDS011;3694;48.732;9.248;2023-01-15T10:32:21;0.50;;;0.50;;
7306;SDS011;3694;48.732;9.248;2023-01-15T10:41:12;0.87;;;0.87;;
7306;SDS011;3694;48.732;9.248;2023-01-15T10:46:38;1.30;;;1.20;;
7306;SDS011;3694;48.732;9.248;2023-01-15T10:49:15;0.43;;;0.40;;
7306;SDS011;3694;48.732;9.248;2023-01-15T10:51:46;0.90;;;0.90;;
7306;SDS011;3694;48.732;9.248;2023-01-15T10:56:58;0.90;;;0.57;;
7306;SDS011;3694;48.732;9.248;2023-01-15T10:59:43;1.00;;;0.93;;
7306;SDS011;3694;48.732;9.248;2023-01-15T11:02:22;4.73;;;4.33;;
7306;SDS011;3694;48.732;9.248;2023-01-15T11:05:03;5.37;;;4.87;;
7306;SDS011;3694;48.732;9.248;2023-01-15T11:07:35;5.00;;;4.50;;
7306;SDS011;3694;48.732;9.248;2023-01-15T11:10:05;11.00;;;9.93;;
7306;SDS011;3694;48.732;9.248;2023-01-15T11:12:36;3.03;;;2.83;;
7306;SDS011;3694;48.732;9.248;2023-01-15T11:15:23;2.73;;;2.53;;
7306;SDS011;3694;48.732;9.248;2023-01-15T11:18:12;2.00;;;1.67;;
7306;SDS011;3694;48.732;9.248;2023-01-15T11:21:01;0.73;;;0.60;;
7306;SDS011;3694;48.732;9.248;2023-01-15T11:23:27;0.50;;;0.50;;
7306;SDS011;3694;48.732;9.248;2023-01-15T11:26:00;0.43;;;0.43;;
7306;SDS011;3694;48.732;9.248;2023-01-15T11:28:36;1.67;;;1.47;;
7306;SDS011;3694;48.732;9.248;2023-01-15T11:31:07;0.70;;;0.70;;
7306;SDS011;3694;48.732;9.248;2023-01-15T11:33:34;1.50;;;0.70;;
7306;SDS011;3694;48.732;9.248;2023-01-15T11:36:02;0.40;;;0.20;;
7306;SDS011;3694;48.732;9.248;2023-01-15T11:38:44;0.30;;;0.30;;
7306;SDS011;3694;48.732;9.248;2023-01-15T11:41:21;0.50;;;0.50;;
7306;SDS011;3694;48.732;9.248;2023-01-15T11:44:10;0.30;;;0.30;;
7306;SDS011;3694;48.732;9.248;2023-01-15T11:46:55;0.30;;;0.30;;
7306;SDS011;3694;48.732;9.248;2023-01-15T11:49:48;1.20;;;0.47;;
7306;SDS011;3694;48.732;9.248;2023-01-15T11:52:33;0.30;;;0.30;;
7306;SDS011;3694;48.732;9.248;2023-01-15T11:55:02;0.40;;;0.40;;
7306;SDS011;3694;48.732;9.248;2023-01-15T11:57:36;0.37;;;0.37;;
7306;SDS011;3694;48.732;9.248;2023-01-15T12:00:02;0.83;;;0.70;;
7306;SDS011;3694;48.732;9.248;2023-01-15T12:02:34;0.30;;;0.30;;
7306;SDS011;3694;48.732;9.248;2023-01-15T12:05:14;0.90;;;0.50;;
7306;SDS011;3694;48.732;9.248;2023-01-15T12:07:43;0.23;;;0.23;;
7306;SDS011;3694;48.732;9.248;2023-01-15T12:12:56;0.30;;;0.30;;
7306;SDS011;3694;48.732;9.248;2023-01-15T12:15:40;0.30;;;0.30;;
7306;SDS011;3694;48.732;9.248;2023-01-15T12:21:19;0.50;;;0.50;;
7306;SDS011;3694;48.732;9.248;2023-01-15T12:30:16;0.50;;;0.40;;
7306;SDS011;3694;48.732;9.248;2023-01-15T12:33:02;0.83;;;0.20;;
7306;SDS011;3694;48.732;9.248;2023-01-15T12:35:39;3.20;;;1.67;;
7306;SDS011;3694;48.732;9.248;2023-01-15T12:38:14;2.70;;;2.50;;
7306;SDS011;3694;48.732;9.248;2023-01-15T12:43:18;0.97;;;0.50;;
7306;SDS011;3694;48.732;9.248;2023-01-15T12:46:13;0.50;;;0.50;;
7306;SDS011;3694;48.732;9.248;2023-01-15T12:48:46;0.80;;;0.63;;
7306;SDS011;3694;48.732;9.248;2023-01-15T12:51:19;0.57;;;0.43;;
7306;SDS011;3694;48.732;9.248;2023-01-15T12:53:52;0.50;;;0.50;;
7306;SDS011;3694;48.732;9.248;2023-01-15T13:02:12;1.57;;;0.63;;
7306;SDS011;3694;48.732;9.248;2023-01-15T13:04:47;0.60;;;0.50;;
7306;SDS011;3694;48.732;9.248;2023-01-15T13:10:03;1.03;;;0.50;;
7306;SDS011;3694;48.732;9.248;2023-01-15T13:12:52;1.03;;;0.40;;
7306;SDS011;3694;48.732;9.248;2023-01-15T13:15:20;0.60;;;0.50;;
7306;SDS011;3694;48.732;9.248;2023-01-15T13:20:42;1.10;;;0.70;;
7306;SDS011;3694;48.732;9.248;2023-01-15T13:23:35;1.07;;;0.60;;
7306;SDS011;3694;48.732;9.248;2023-01-15T13:29:10;1.10;;;0.77;;
7306;SDS011;3694;48.732;9.248;2023-01-15T13:31:56;1.57;;;0.70;;
7306;SDS011;3694;48.732;9.248;2023-01-15T13:34:30;0.87;;;0.80;;
7306;SDS011;3694;48.732;9.248;2023-01-15T13:39:56;0.97;;;0.70;;
7306;SDS011;3694;48.732;9.248;2023-01-15T13:42:25;1.40;;;1.07;;
7306;SDS011;3694;48.732;9.248;2023-01-15T13:47:33;1.13;;;1.00;;
7306;SDS011;3694;48.732;9.248;2023-01-15T13:50:03;1.23;;;0.90;;
7306;SDS011;3694;48.732;9.248;2023-01-15T13:52:36;0.87;;;0.50;;
7306;SDS011;3694;48.732;9.248;2023-01-15T13:55:18;2.17;;;0.80;;
7306;SDS011;3694;48.732;9.248;2023-01-15T13:57:47;0.73;;;0.70;;
7306;SDS011;3694;48.732;9.248;2023-01-15T14:00:27;2.10;;;0.97;;
7306;SDS011;3694;48.732;9.248;2023-01-15T14:02:57;1.87;;;1.00;;
7306;SDS011;3694;48.732;9.248;2023-01-15T14:05:34;1.10;;;0.80;;
7306;SDS011;3694;48.732;9.248;2023-01-15T14:08:00;2.07;;;0.77;;
7306;SDS011;3694;48.732;9.248;2023-01-15T14:10:38;1.97;;;0.83;;
7306;SDS011;3694;48.732;9.248;2023-01-15T14:26:35;1.30;;;0.67;;
7306;SDS011;3694;48.732;9.248;2023-01-15T14:34:53;1.60;;;0.83;;
7306;SDS011;3694;48.732;9.248;2023-01-15T14:37:25;2.97;;;0.77;;
7306;SDS011;3694;48.732;9.248;2023-01-15T14:39:59;1.87;;;0.60;;
7306;SDS011;3694;48.732;9.248;2023-01-15T14:42:28;1.83;;;0.90;;
7306;SDS011;3694;48.732;9.248;2023-01-15T14:45:40;2.43;;;1.00;;
7306;SDS011;3694;48.732;9.248;2023-01-15T14:48:17;2.33;;;0.80;;
7306;SDS011;3694;48.732;9.248;2023-01-15T14:50:45;2.27;;;0.80;;
7306;SDS011;3694;48.732;9.248;2023-01-15T14:55:50;2.60;;;1.20;;
7306;SDS011;3694;48.732;9.248;2023-01-15T14:58:36;2.43;;;1.07;;
7306;SDS011;3694;48.732;9.248;2023-01-15T15:01:31;1.43;;;1.10;;
7306;SDS011;3694;48.732;9.248;2023-01-15T15:06:56;2.23;;;1.27;;
7306;SDS011;3694;48.732;9.248;2023-01-15T15:09:41;2.63;;;1.33;;
7306;SDS011;3694;48.732;9.248;2023-01-15T15:20:30;1.43;;;0.90;;
7306;SDS011;3694;48.732;9.248;2023-01-15T15:23:09;1.43;;;0.80;;
7306;SDS011;3694;48.732;9.248;2023-01-15T15:25:39;3.27;;;1.10;;
7306;SDS011;3694;48.732;9.248;2023-01-15T15:28:08;1.33;;;0.90;;
7306;SDS011;3694;48.732;9.248;2023-01-15T15:30:35;2.50;;;0.93;;
7306;SDS011;3694;48.732;9.248;2023-01-15T15:33:05;0.90;;;0.70;;
7306;SDS011;3694;48.732;9.248;2023-01-15T15:35:41;1.40;;;0.80;;
7306;SDS011;3694;48.732;9.248;2023-01-15T15:38:14;3.13;;;1.37;;
7306;SDS011;3694;48.732;9.248;2023-01-15T15:40:44;3.47;;;1.30;;
7306;SDS011;3694;48.732;9.248;2023-01-15T15:43:18;2.33;;;1.20;;
7306;SDS011;3694;48.732;9.248;2023-01-15T15:46:27;1.20;;;0.80;;
7306;SDS011;3694;48.732;9.248;2023-01-15T15:49:13;2.63;;;1.60;;
7306;SDS011;3694;48.732;9.248;2023-01-15T15:51:49;2.60;;;1.00;;
7306;SDS011;3694;48.732;9.248;2023-01-15T15:54:22;1.10;;;0.80;;
7306;SDS011;3694;48.732;9.248;2023-01-15T15:57:02;1.30;;;1.10;;
7306;SDS011;3694;48.732;9.248;2023-01-15T15:59:43;1.67;;;1.17;;
7306;SDS011;3694;48.732;9.248;2023-01-15T16:02:24;3.20;;;1.60;;
7306;SDS011;3694;48.732;9.248;2023-01-15T16:05:14;2.13;;;1.40;;
7306;SDS011;3694;48.732;9.248;2023-01-15T16:07:51;3.03;;;1.83;;
7306;SDS011;3694;48.732;9.248;2023-01-15T16:10:23;2.93;;;2.10;;
7306;SDS011;3694;48.732;9.248;2023-01-15T16:12:57;3.27;;;2.53;;
7306;SDS011;3694;48.732;9.248;2023-01-15T16:15:26;2.67;;;1.73;;
7306;SDS011;3694;48.732;9.248;2023-01-15T16:17:54;2.83;;;1.40;;
7306;SDS011;3694;48.732;9.248;2023-01-15T16:20:24;3.27;;;1.40;;
7306;SDS011;3694;48.732;9.248;2023-01-15T16:22:54;1.40;;;1.30;;
7306;SDS011;3694;48.732;9.248;2023-01-15T16:25:39;2.20;;;1.00;;
7306;SDS011;3694;48.732;9.248;2023-01-15T16:28:06;1.03;;;0.87;;
7306;SDS011;3694;48.732;9.248;2023-01-15T16:30:45;2.33;;;1.47;;
7306;SDS011;3694;48.732;9.248;2023-01-15T16:33:22;2.53;;;1.43;;
7306;SDS011;3694;48.732;9.248;2023-01-15T16:35:54;3.03;;;1.30;;
7306;SDS011;3694;48.732;9.248;2023-01-15T16:38:23;2.33;;;1.47;;
7306;SDS011;3694;48.732;9.248;2023-01-15T16:40:50;2.27;;;1.33;;
7306;SDS011;3694;48.732;9.248;2023-01-15T16:43:17;2.97;;;1.57;;
7306;SDS011;3694;48.732;9.248;2023-01-15T16:46:00;2.00;;;1.60;;
7306;SDS011;3694;48.732;9.248;2023-01-15T16:50:55;3.50;;;2.03;;
7306;SDS011;3694;48.732;9.248;2023-01-15T16:55:59;3.80;;;1.83;;
7306;SDS011;3694;48.732;9.248;2023-01-15T17:01:23;2.03;;;1.63;;
7306;SDS011;3694;48.732;9.248;2023-01-15T17:03:49;5.03;;;1.80;;
7306;SDS011;3694;48.732;9.248;2023-01-15T17:06:16;2.73;;;1.83;;
7306;SDS011;3694;48.732;9.248;2023-01-15T17:08:46;2.57;;;1.60;;
7306;SDS011;3694;48.732;9.248;2023-01-15T17:11:18;2.33;;;1.53;;
7306;SDS011;3694;48.732;9.248;2023-01-15T17:13:45;4.23;;;1.90;;
7306;SDS011;3694;48.732;9.248;2023-01-15T17:18:36;4.33;;;2.43;;
7306;SDS011;3694;48.732;9.248;2023-01-15T17:21:02;4.80;;;2.53;;
7306;SDS011;3694;48.732;9.248;2023-01-15T17:23:29;4.13;;;2.97;;
7306;SDS011;3694;48.732;9.248;2023-01-15T17:25:59;3.17;;;1.73;;
7306;SDS011;3694;48.732;9.248;2023-01-15T17:28:25;4.10;;;1.70;;
7306;SDS011;3694;48.732;9.248;2023-01-15T17:30:52;3.93;;;1.87;;
7306;SDS011;3694;48.732;9.248;2023-01-15T17:33:23;5.27;;;3.00;;
7306;SDS011;3694;48.732;9.248;2023-01-15T17:35:48;3.57;;;2.83;;
7306;SDS011;3694;48.732;9.248;2023-01-15T17:38:15;2.90;;;2.30;;
7306;SDS011;3694;48.732;9.248;2023-01-15T17:40:41;3.27;;;2.00;;
7306;SDS011;3694;48.732;9.248;2023-01-15T17:43:08;2.53;;;1.83;;